Terminal Aerodrome Forecast
Issued by NWS

Home | Current Version | Previous Version | Graphics & Text | Print | Product List | Glossary On
Versions: 1 2 3 4 5 6 7 8 9 10 11 12 13 14 15 16 17 18
000
FTUS43 KBIS 191100
TAFDIK
TAF
KDIK 191120Z 1912/2012 16006KT P6SM SKC
     FM191600 16014KT P6SM SCT150
     FM192200 18014KT P6SM SCT060
     FM200900 23009KT P6SM SCT060=

USA.gov is the U.S. government's official web portal to all federal, state and local government web resources and services.